Time;durP1;ratioP1;P1;durP2;ratioP2;P2;SDS_P1;SDS_P2;PMS_P1;PMS_P2;Temp;Humidity;BMP_temperature;BMP_pressure;BME280_temperature;BME280_humidity;BME280_pressure;Samples;Min_cycle;Max_cycle;Signal;HPM_P1;HPM_P2
2023/02/25 00:01:07;;;;;;;7.88;3.03;;;;;;;1.44;100.00;96908.75;4192318;28;20044;-76
2023/02/25 00:03:07;;;;;;;4.65;1.98;;;;;;;1.45;100.00;96902.16;4190718;28;20124;-76
2023/02/25 00:05:07;;;;;;;13.02;2.40;;;;;;;1.46;100.00;96902.94;4197098;28;20088;-76
2023/02/25 00:07:08;;;;;;;5.50;1.77;;;;;;;1.37;100.00;96901.22;4194567;28;20039;-76
2023/02/25 00:09:10;;;;;;;8.23;2.75;;;;;;;1.32;100.00;96903.41;4193594;28;20037;-76
2023/02/25 00:11:12;;;;;;;10.87;2.47;;;;;;;1.41;100.00;96906.75;4192288;28;20406;-76
2023/02/25 00:13:12;;;;;;;5.45;2.22;;;;;;;1.40;100.00;96914.13;4191516;28;20270;-76
2023/02/25 00:15:13;;;;;;;9.52;2.00;;;;;;;1.46;100.00;96911.13;4197713;28;20059;-76
2023/02/25 00:17:13;;;;;;;10.18;2.38;;;;;;;1.50;100.00;96912.00;4195468;28;20048;-76
2023/02/25 00:19:13;;;;;;;9.70;2.00;;;;;;;1.46;100.00;96913.84;4192072;28;20080;-75
2023/02/25 00:21:15;;;;;;;8.23;2.28;;;;;;;1.54;100.00;96908.19;4191219;28;20076;-76
2023/02/25 00:23:15;;;;;;;7.68;2.08;;;;;;;1.47;100.00;96910.75;4192815;28;20098;-75
2023/02/25 00:25:16;;;;;;;8.10;2.40;;;;;;;1.48;100.00;96914.28;4197366;28;20410;-76
2023/02/25 00:27:17;;;;;;;4.03;1.85;;;;;;;1.52;100.00;96899.59;4221783;28;20092;-75
2023/02/25 00:29:17;;;;;;;6.65;1.73;;;;;;;1.51;100.00;96903.47;4197963;28;20269;-75
2023/02/25 00:31:20;;;;;;;4.68;1.85;;;;;;;1.47;100.00;96920.88;4192138;28;20045;-75
2023/02/25 00:33:21;;;;;;;9.32;2.38;;;;;;;1.45;100.00;96910.34;4198534;28;20051;-76
2023/02/25 00:35:21;;;;;;;5.25;2.00;;;;;;;1.44;100.00;96911.47;4193215;28;20078;-76
2023/02/25 00:37:22;;;;;;;6.63;2.03;;;;;;;1.49;100.00;96915.84;4191983;28;20060;-76
2023/02/25 00:39:23;;;;;;;7.97;2.40;;;;;;;1.54;100.00;96910.13;4191318;28;20040;-75
2023/02/25 00:41:26;;;;;;;9.15;2.35;;;;;;;1.52;100.00;96913.22;4191763;28;20395;-75
2023/02/25 00:43:29;;;;;;;11.45;2.90;;;;;;;1.50;100.00;96903.81;4192250;28;20469;-76
2023/02/25 00:45:30;;;;;;;8.80;2.17;;;;;;;1.47;100.00;96913.47;4196169;28;20131;-76
2023/02/25 00:47:30;;;;;;;11.02;2.55;;;;;;;1.48;100.00;96920.50;4193932;28;20785;-76
2023/02/25 00:49:31;;;;;;;12.10;2.22;;;;;;;1.46;100.00;96917.38;4195576;28;20068;-76
2023/02/25 00:51:32;;;;;;;11.70;2.30;;;;;;;1.44;100.00;96916.16;4194936;28;20048;-76
2023/02/25 00:53:33;;;;;;;5.63;2.08;;;;;;;1.47;100.00;96910.75;4196894;28;20048;-76
2023/02/25 00:55:33;;;;;;;6.70;2.15;;;;;;;1.50;100.00;96904.63;4197261;28;20175;-76
2023/02/25 00:57:33;;;;;;;9.00;1.95;;;;;;;1.53;100.00;96912.06;4192106;28;20321;-76
2023/02/25 00:59:34;;;;;;;9.13;1.95;;;;;;;1.51;100.00;96908.13;4194590;28;20399;-76
2023/02/25 01:01:37;;;;;;;7.22;1.50;;;;;;;1.53;100.00;96909.34;4190988;28;20072;-76
2023/02/25 01:03:37;;;;;;;7.38;2.17;;;;;;;1.50;100.00;96920.97;4192293;28;20392;-76
2023/02/25 01:05:41;;;;;;;7.18;1.98;;;;;;;1.53;100.00;96920.25;4190876;28;20089;-76
2023/02/25 01:07:41;;;;;;;6.93;2.10;;;;;;;1.43;100.00;96918.09;4193958;28;20047;-76
2023/02/25 01:09:42;;;;;;;12.02;2.00;;;;;;;1.41;100.00;96925.84;4194742;28;20127;-76
2023/02/25 01:11:45;;;;;;;7.38;1.88;;;;;;;1.46;100.00;96916.56;4191313;28;20742;-76
2023/02/25 01:13:49;;;;;;;7.63;1.85;;;;;;;1.38;100.00;96918.34;4192526;28;20484;-76
2023/02/25 01:15:49;;;;;;;9.65;2.30;;;;;;;1.37;100.00;96927.69;4191052;28;20079;-76
2023/02/25 01:17:49;;;;;;;10.75;1.80;;;;;;;1.44;100.00;96927.03;4193385;28;20520;-76
2023/02/25 01:19:50;;;;;;;3.67;1.70;;;;;;;1.46;100.00;96920.09;4189883;28;20198;-76
2023/02/25 01:21:54;;;;;;;9.38;2.13;;;;;;;1.39;100.00;96934.34;4196407;28;20175;-76
2023/02/25 01:23:57;;;;;;;7.05;1.95;;;;;;;1.36;100.00;96929.63;4191511;28;20747;-76
2023/02/25 01:25:58;;;;;;;7.20;1.88;;;;;;;1.35;100.00;96933.50;4193634;28;20141;-76
2023/02/25 01:27:59;;;;;;;8.52;2.00;;;;;;;1.35;100.00;96936.22;4195166;28;20448;-76
2023/02/25 01:29:59;;;;;;;8.73;2.00;;;;;;;1.37;100.00;96933.91;4195902;28;20083;-76
2023/02/25 01:32:02;;;;;;;6.18;1.77;;;;;;;1.34;100.00;96934.63;4195860;28;20303;-76
2023/02/25 01:34:05;;;;;;;8.25;1.88;;;;;;;1.25;100.00;96933.25;4195568;28;20051;-76
2023/02/25 01:36:05;;;;;;;7.32;2.47;;;;;;;1.24;100.00;96940.63;4191158;28;20016;-76
2023/02/25 01:38:05;;;;;;;8.70;1.85;;;;;;;1.27;100.00;96936.41;4192886;28;20068;-76
2023/02/25 01:40:06;;;;;;;6.10;1.50;;;;;;;1.25;100.00;96936.75;4194255;28;20303;-76
2023/02/25 01:42:14;;;;;;;5.82;1.83;;;;;;;1.28;100.00;96943.44;4190232;28;20369;-76
2023/02/25 01:44:30;;;;;;;12.85;2.67;;;;;;;1.26;100.00;96929.38;4192156;28;20028;-76
2023/02/25 01:46:31;;;;;;;8.32;2.15;;;;;;;1.22;100.00;96937.44;4189978;28;20048;-75
2023/02/25 01:48:35;;;;;;;6.43;1.55;;;;;;;1.19;100.00;96934.66;4193900;28;20645;-76
2023/02/25 01:50:49;;;;;;;9.10;2.10;;;;;;;1.21;100.00;96932.38;4193162;28;20031;-76
2023/02/25 01:52:50;;;;;;;7.53;1.80;;;;;;;1.32;100.00;96931.44;4190643;28;20052;-76
2023/02/25 01:54:54;;;;;;;11.82;2.40;;;;;;;1.29;100.00;96915.81;4191272;28;20036;-76
2023/02/25 01:56:56;;;;;;;10.15;2.33;;;;;;;1.32;100.00;96917.03;4190831;28;20089;-76
2023/02/25 01:58:57;;;;;;;6.70;1.77;;;;;;;1.36;100.00;96929.63;4190563;28;20094;-76
2023/02/25 02:00:58;;;;;;;10.68;1.90;;;;;;;1.35;100.00;96924.53;4193120;28;20570;-76
2023/02/25 02:02:59;;;;;;;10.98;2.42;;;;;;;1.38;100.00;96929.25;4192882;28;20060;-76
2023/02/25 02:05:00;;;;;;;7.95;2.60;;;;;;;1.34;100.00;96940.09;4196126;28;20052;-76
2023/02/25 02:07:00;;;;;;;8.18;2.03;;;;;;;1.35;100.00;96946.31;4190778;28;20079;-75
2023/02/25 02:09:02;;;;;;;8.60;1.90;;;;;;;1.38;100.00;96954.56;4189992;28;20048;-75
2023/02/25 02:11:03;;;;;;;6.25;1.90;;;;;;;1.34;100.00;96942.81;4190644;28;20055;-76
2023/02/25 02:13:04;;;;;;;6.97;1.58;;;;;;;1.31;100.00;96959.84;4190680;28;20442;-76
2023/02/25 02:15:09;;;;;;;8.95;2.10;;;;;;;1.20;100.00;96949.84;4192605;28;20048;-75
2023/02/25 02:17:32;;;;;;;8.45;1.85;;;;;;;1.22;100.00;96964.69;4190430;28;20076;-75
2023/02/25 02:19:50;;;;;;;9.05;1.90;;;;;;;1.20;100.00;96960.75;4196782;28;20207;-76
2023/02/25 02:22:28;;;;;;;5.88;2.13;;;;;;;1.16;100.00;96957.16;4192723;28;20384;-76
2023/02/25 02:25:01;;;;;;;8.70;2.88;;;;;;;1.09;100.00;96952.34;4189406;28;20045;-76
2023/02/25 02:27:24;;;;;;;8.43;1.88;;;;;;;1.15;100.00;96952.84;4188750;28;20060;-76
2023/02/25 02:29:31;;;;;;;6.43;2.10;;;;;;;1.14;100.00;96957.50;4190414;28;20063;-76
2023/02/25 02:31:53;;;;;;;6.38;1.70;;;;;;;1.19;100.00;96948.28;4192576;28;20291;-75
2023/02/25 02:33:54;;;;;;;6.50;1.52;;;;;;;1.18;100.00;96950.22;4194868;28;20059;-76
2023/02/25 02:36:19;;;;;;;7.63;1.45;;;;;;;1.20;100.00;96960.75;4196145;28;20057;-75
2023/02/25 02:38:43;;;;;;;9.90;1.98;;;;;;;1.21;100.00;96954.16;4192652;28;20041;-76
2023/02/25 02:41:00;;;;;;;8.07;1.73;;;;;;;1.29;100.00;96953.19;4193737;28;20095;-76
2023/02/25 02:43:16;;;;;;;8.32;2.45;;;;;;;1.29;100.00;96958.63;4192795;28;20041;-76
2023/02/25 02:45:27;;;;;;;10.27;1.95;;;;;;;1.32;100.00;96950.53;4202477;28;20070;-76
2023/02/25 02:47:36;;;;;;;5.95;2.08;;;;;;;1.31;100.00;96967.22;4193448;28;20098;-75
2023/02/25 02:49:42;;;;;;;10.55;3.03;;;;;;;1.26;100.00;96951.97;4192770;28;20286;-76
2023/02/25 02:51:55;;;;;;;13.23;2.13;;;;;;;1.19;100.00;96948.28;4193013;28;20032;-76
2023/02/25 02:53:58;;;;;;;5.93;2.40;;;;;;;1.18;100.00;96957.59;4196175;28;20052;-76
2023/02/25 02:56:03;;;;;;;8.25;2.22;;;;;;;1.26;100.00;96954.69;4199778;28;20039;-76
2023/02/25 02:58:11;;;;;;;7.15;2.15;;;;;;;1.25;100.00;96955.84;4192298;28;20048;-76
2023/02/25 03:00:18;;;;;;;7.65;1.85;;;;;;;1.26;100.00;96949.25;4192170;28;20050;-76
2023/02/25 03:02:37;;;;;;;5.93;1.55;;;;;;;1.27;100.00;96950.81;4192883;28;20029;-76
2023/02/25 03:04:40;;;;;;;11.48;2.40;;;;;;;1.25;100.00;96950.38;4196432;28;20049;-75
2023/02/25 03:06:49;;;;;;;3.88;1.90;;;;;;;1.24;100.00;96959.72;4196140;28;20051;-76
2023/02/25 03:08:57;;;;;;;8.63;1.92;;;;;;;1.22;100.00;96963.91;4195897;28;20063;-75
2023/02/25 03:10:58;;;;;;;3.58;1.70;;;;;;;1.25;100.00;96971.41;4192910;28;20132;-76
2023/02/25 03:12:58;;;;;;;8.30;2.65;;;;;;;1.24;100.00;96958.88;4195806;28;20190;-75
2023/02/25 03:14:58;;;;;;;4.22;1.67;;;;;;;1.21;100.00;96959.59;4194766;28;20472;-76
2023/02/25 03:17:10;;;;;;;5.95;2.40;;;;;;;1.17;100.00;96966.94;4193135;28;20052;-76
2023/02/25 03:19:15;;;;;;;6.97;2.10;;;;;;;1.19;100.00;96954.53;4193342;28;20041;-75
2023/02/25 03:21:21;;;;;;;5.20;2.00;;;;;;;1.22;100.00;96958.47;4192863;28;20033;-76
2023/02/25 03:23:27;;;;;;;9.60;2.20;;;;;;;1.21;100.00;96962.34;4192484;28;20040;-76
2023/02/25 03:25:46;;;;;;;3.75;1.80;;;;;;;1.21;100.00;96959.59;4196117;28;20257;-76
2023/02/25 03:27:51;;;;;;;10.07;1.73;;;;;;;1.22;100.00;96958.47;4194275;28;20068;-75
2023/02/25 03:29:59;;;;;;;6.65;2.58;;;;;;;1.20;100.00;96960.75;4192740;28;20048;-76
2023/02/25 03:32:08;;;;;;;4.57;2.08;;;;;;;1.22;100.00;96958.47;4192587;28;20494;-75
2023/02/25 03:34:19;;;;;;;9.00;2.15;;;;;;;1.15;100.00;96963.75;4191966;28;20048;-75
2023/02/25 03:36:26;;;;;;;5.82;2.20;;;;;;;1.17;100.00;96962.25;4195576;28;20062;-76
2023/02/25 03:38:30;;;;;;;10.00;2.50;;;;;;;1.18;100.00;96960.31;4193160;28;20359;-76
2023/02/25 03:40:32;;;;;;;8.40;2.35;;;;;;;1.13;100.00;96966.81;4192845;28;20499;-76
2023/02/25 03:42:35;;;;;;;9.88;2.33;;;;;;;1.10;100.00;96978.44;4195551;28;20060;-76
2023/02/25 03:44:44;;;;;;;9.05;1.85;;;;;;;1.04;100.00;96982.56;4194426;28;20595;-75
2023/02/25 03:46:46;;;;;;;5.97;2.30;;;;;;;1.03;100.00;96987.22;4192931;28;20087;-76
2023/02/25 03:48:48;;;;;;;8.30;2.22;;;;;;;1.02;100.00;96993.03;4194864;28;20036;-76
2023/02/25 03:50:58;;;;;;;7.35;2.08;;;;;;;1.02;100.00;96996.53;4192452;28;20095;-76
2023/02/25 03:52:58;;;;;;;10.75;2.50;;;;;;;1.06;100.00;96988.44;4191774;28;20064;-76
2023/02/25 03:54:59;;;;;;;10.60;2.22;;;;;;;1.12;100.00;96998.72;4195021;28;20447;-76
2023/02/25 03:57:00;;;;;;;9.30;2.95;;;;;;;1.16;100.00;97007.00;4191215;28;20044;-76
2023/02/25 03:59:01;;;;;;;7.70;2.13;;;;;;;1.08;100.00;97016.94;4194630;28;20465;-76
2023/02/25 04:01:06;;;;;;;9.15;2.15;;;;;;;1.16;100.00;97012.44;4193754;28;20055;-76
2023/02/25 04:03:06;;;;;;;8.82;2.45;;;;;;;1.17;100.00;97019.47;4191940;28;20076;-75
2023/02/25 04:05:09;;;;;;;7.60;2.90;;;;;;;1.26;100.00;97014.63;4192475;28;20520;-76
2023/02/25 04:07:09;;;;;;;8.18;3.25;;;;;;;1.25;100.00;97017.72;4194093;28;20447;-76
2023/02/25 04:09:09;;;;;;;7.22;2.42;;;;;;;1.24;100.00;97025.09;4193485;28;20049;-76
2023/02/25 04:11:10;;;;;;;7.20;2.08;;;;;;;1.25;100.00;97029.41;4191203;28;20072;-76
2023/02/25 04:13:11;;;;;;;8.80;2.13;;;;;;;1.25;100.00;97023.94;4197035;28;20181;-76
2023/02/25 04:15:15;;;;;;;5.60;1.90;;;;;;;1.28;100.00;97022.44;4190860;28;20052;-75
2023/02/25 04:17:15;;;;;;;8.68;2.85;;;;;;;1.24;100.00;97027.81;4191907;28;20267;-76
2023/02/25 04:19:17;;;;;;;10.32;2.53;;;;;;;1.26;100.00;97022.00;4193320;28;20047;-75
2023/02/25 04:21:32;;;;;;;8.27;2.35;;;;;;;1.24;100.00;97040.63;4197285;28;20032;-76
2023/02/25 04:23:33;;;;;;;4.82;1.75;;;;;;;1.26;100.00;97030.97;4196892;28;20062;-76
2023/02/25 04:25:34;;;;;;;8.18;2.67;;;;;;;1.26;100.00;97038.38;4191891;28;20049;-76
2023/02/25 04:27:34;;;;;;;5.03;1.77;;;;;;;1.22;100.00;97032.03;4185541;28;20653;-76
2023/02/25 04:29:34;;;;;;;6.93;3.15;;;;;;;1.27;100.00;97031.78;4188301;28;20040;-75
2023/02/25 04:31:34;;;;;;;5.70;1.60;;;;;;;1.30;100.00;97026.38;4192219;28;20052;-76
2023/02/25 04:33:35;;;;;;;10.48;2.38;;;;;;;1.29;100.00;97029.47;4194638;28;20044;-76
2023/02/25 04:35:35;;;;;;;7.80;2.03;;;;;;;1.25;100.00;97031.34;4192788;28;20428;-76
2023/02/25 04:37:36;;;;;;;8.38;2.22;;;;;;;1.21;100.00;97033.97;4192662;28;20056;-76
2023/02/25 04:39:36;;;;;;;5.53;1.77;;;;;;;1.29;100.00;97035.72;4193449;28;20040;-77
2023/02/25 04:41:37;;;;;;;7.57;1.80;;;;;;;1.30;100.00;97036.50;4190333;28;20144;-76
2023/02/25 04:43:38;;;;;;;5.97;1.83;;;;;;;1.25;100.00;97032.13;4190264;28;20048;-76
2023/02/25 04:45:38;;;;;;;6.35;1.90;;;;;;;1.25;100.00;97042.22;4188203;28;20393;-75
2023/02/25 04:47:38;;;;;;;9.70;2.15;;;;;;;1.30;100.00;97031.06;4191728;28;20178;-76
2023/02/25 04:49:43;;;;;;;3.58;1.60;;;;;;;1.30;100.00;97031.06;4193420;28;20128;-76
2023/02/25 04:51:44;;;;;;;7.97;1.67;;;;;;;1.31;100.00;97040.81;4191312;28;20536;-75
2023/02/25 04:53:45;;;;;;;10.88;2.53;;;;;;;1.29;100.00;97040.38;4191248;28;20072;-76
2023/02/25 04:55:46;;;;;;;6.65;2.15;;;;;;;1.33;100.00;97039.34;4194616;28;20056;-76
2023/02/25 04:57:46;;;;;;;11.68;3.10;;;;;;;1.35;100.00;97038.97;4201106;28;20395;-76
2023/02/25 04:59:46;;;;;;;5.95;2.08;;;;;;;1.35;100.00;97037.03;4190392;28;20083;-75
2023/02/25 05:01:47;;;;;;;5.78;1.95;;;;;;;1.28;100.00;97042.31;4190836;28;20063;-75
2023/02/25 05:03:47;;;;;;;9.75;2.00;;;;;;;1.29;100.00;97038.44;4198495;28;20416;-76
2023/02/25 05:05:47;;;;;;;7.93;2.22;;;;;;;1.24;100.00;97032.47;4194804;28;20056;-76
2023/02/25 05:07:48;;;;;;;3.53;1.88;;;;;;;1.13;100.00;97052.06;4191985;28;20036;-75
2023/02/25 05:09:48;;;;;;;8.13;1.92;;;;;;;1.10;100.00;97054.72;4191822;28;20048;-76
2023/02/25 05:11:48;;;;;;;4.97;1.85;;;;;;;1.00;100.00;97041.59;4194226;28;20848;-76
2023/02/25 05:13:49;;;;;;;5.88;1.90;;;;;;;1.01;100.00;97048.63;4194796;28;20048;-76
2023/02/25 05:15:50;;;;;;;9.10;2.50;;;;;;;0.98;100.00;97052.03;4191918;28;20036;-76
2023/02/25 05:17:51;;;;;;;10.15;3.20;;;;;;;0.95;100.00;97048.09;4195654;28;20044;-76
2023/02/25 05:19:51;;;;;;;6.10;1.75;;;;;;;0.96;100.00;97062.50;4195079;28;20037;-76
2023/02/25 05:21:52;;;;;;;7.90;2.20;;;;;;;0.83;100.00;97065.31;4195911;28;20044;-76
2023/02/25 05:23:53;;;;;;;9.18;2.75;;;;;;;0.71;100.00;97059.13;4195725;28;20057;-76
2023/02/25 05:25:53;;;;;;;5.78;2.17;;;;;;;0.67;100.00;97063.69;4191308;28;20057;-76
2023/02/25 05:27:54;;;;;;;6.95;2.97;;;;;;;0.54;100.00;97077.34;4190013;28;20049;-76
2023/02/25 05:29:54;;;;;;;8.90;3.03;;;;;;;0.47;100.00;97082.56;4189984;28;20473;-76
2023/02/25 05:31:55;;;;;;;5.50;2.20;;;;;;;0.48;100.00;97080.66;4191193;28;20354;-76
2023/02/25 05:33:55;;;;;;;11.13;2.25;;;;;;;0.40;100.00;97060.59;4194601;28;20056;-76
2023/02/25 05:35:55;;;;;;;8.65;2.95;;;;;;;0.27;100.00;97056.34;4192074;28;20139;-76
2023/02/25 05:37:56;;;;;;;7.82;2.28;;;;;;;0.15;100.00;97065.31;4188876;28;20041;-76
2023/02/25 05:39:57;;;;;;;7.05;2.30;;;;;;;0.06;100.00;97069.31;4190690;28;20033;-76
2023/02/25 05:41:57;;;;;;;7.93;2.28;;;;;;;-0.04;100.00;97073.31;4189964;28;20073;-76
2023/02/25 05:43:58;;;;;;;6.40;2.40;;;;;;;-0.02;100.00;97085.44;4192613;28;20044;-76
2023/02/25 05:46:00;;;;;;;9.05;3.40;;;;;;;-0.04;100.00;97092.34;4190019;28;20048;-76
2023/02/25 05:48:00;;;;;;;12.15;4.72;;;;;;;-0.12;100.00;97095.97;4190322;28;20048;-76
2023/02/25 05:50:01;;;;;;;6.25;3.47;;;;;;;-0.12;100.00;97098.69;4190381;28;20063;-76
2023/02/25 05:52:01;;;;;;;4.97;3.00;;;;;;;-0.16;100.00;97074.13;4189922;28;20047;-76
2023/02/25 05:54:02;;;;;;;8.18;3.25;;;;;;;-0.23;100.00;97081.28;4187652;28;20059;-75
2023/02/25 05:56:05;;;;;;;5.93;2.50;;;;;;;-0.21;100.00;97079.00;4183440;28;20149;-75
2023/02/25 05:58:06;;;;;;;5.78;2.28;;;;;;;-0.18;100.00;97075.59;4188710;28;20040;-75
2023/02/25 06:00:08;;;;;;;8.00;2.70;;;;;;;-0.15;100.00;97081.16;4187411;28;20036;-75
2023/02/25 06:02:08;;;;;;;9.05;2.83;;;;;;;-0.05;100.00;97079.88;4190702;28;20023;-76
2023/02/25 06:04:09;;;;;;;5.78;2.22;;;;;;;0.08;100.00;97086.09;4188796;28;20111;-76
2023/02/25 06:06:14;;;;;;;6.38;2.28;;;;;;;0.24;100.00;97084.22;4190744;28;20087;-76
2023/02/25 06:08:15;;;;;;;8.07;2.20;;;;;;;0.34;100.00;97091.94;4204239;28;20035;-75
2023/02/25 06:10:15;;;;;;;5.35;2.05;;;;;;;0.42;100.00;97106.53;4195836;28;20025;-76
2023/02/25 06:12:15;;;;;;;10.10;2.22;;;;;;;0.47;100.00;97104.34;4196645;28;20047;-76
2023/02/25 06:14:16;;;;;;;4.03;2.20;;;;;;;0.46;100.00;97108.22;4189249;28;20035;-76
2023/02/25 06:16:17;;;;;;;6.90;2.08;;;;;;;0.43;100.00;97108.91;4196026;28;20099;-76
2023/02/25 06:18:17;;;;;;;7.55;2.45;;;;;;;0.40;100.00;97106.06;4190993;28;20077;-75
2023/02/25 06:20:18;;;;;;;10.38;2.30;;;;;;;0.30;100.00;97088.31;4183757;28;20341;-76
2023/02/25 06:22:19;;;;;;;5.38;2.25;;;;;;;0.24;100.00;97084.22;4194266;28;20028;-77
2023/02/25 06:24:21;;;;;;;4.07;1.73;;;;;;;0.15;100.00;97089.81;4193426;28;20032;-76
2023/02/25 06:26:21;;;;;;;8.77;1.85;;;;;;;0.12;100.00;97097.88;4191883;28;20398;-76
2023/02/25 06:28:22;;;;;;;4.97;1.88;;;;;;;0.05;100.00;97103.09;4194193;28;20485;-76
2023/02/25 06:30:23;;;;;;;3.28;2.05;;;;;;;0.08;100.00;97103.19;4192529;28;20075;-76
2023/02/25 06:32:23;;;;;;;6.30;1.90;;;;;;;0.05;100.00;97111.25;4190593;28;20043;-76
2023/02/25 06:34:31;;;;;;;8.35;2.33;;;;;;;0.12;100.00;97108.75;4187646;28;20534;-76
2023/02/25 06:36:32;;;;;;;8.27;2.25;;;;;;;0.11;100.00;97110.69;4183071;28;20051;-75
2023/02/25 06:38:33;;;;;;;7.18;2.60;;;;;;;0.21;100.00;97102.03;4187605;28;20044;-76
2023/02/25 06:40:33;;;;;;;12.43;2.50;;;;;;;0.26;100.00;97109.19;4191028;28;20036;-76
2023/02/25 06:42:33;;;;;;;6.13;3.05;;;;;;;0.30;100.00;97115.50;4192522;28;20120;-76
2023/02/25 06:44:34;;;;;;;8.57;2.53;;;;;;;0.33;100.00;97125.69;4182405;28;20318;-76
2023/02/25 06:46:34;;;;;;;5.38;2.15;;;;;;;0.33;100.00;97116.75;4191526;28;20055;-76
2023/02/25 06:48:35;;;;;;;5.60;2.33;;;;;;;0.34;100.00;97123.78;4188835;28;20040;-76
2023/02/25 06:50:38;;;;;;;9.05;2.60;;;;;;;0.32;100.00;97121.41;4194502;28;20047;-76
2023/02/25 06:52:39;;;;;;;8.20;2.60;;;;;;;0.37;100.00;97123.88;4193495;28;20175;-76
2023/02/25 06:54:39;;;;;;;4.93;2.35;;;;;;;0.36;100.00;97124.22;4192407;28;20086;-76
2023/02/25 06:56:40;;;;;;;7.05;3.42;;;;;;;0.48;100.00;97135.88;4192108;28;20102;-76
2023/02/25 06:58:41;;;;;;;7.55;2.33;;;;;;;0.48;100.00;97133.13;4191523;28;20065;-76
2023/02/25 07:00:41;;;;;;;6.78;3.13;;;;;;;0.52;100.00;97130.53;4191935;28;20074;-76
2023/02/25 07:02:42;;;;;;;5.68;2.05;;;;;;;0.65;100.00;97142.16;4194562;28;20036;-76
2023/02/25 07:04:42;;;;;;;9.65;2.63;;;;;;;0.70;100.00;97140.00;4188432;28;20110;-76
2023/02/25 07:06:43;;;;;;;8.43;2.20;;;;;;;0.72;100.00;97135.00;4185433;28;20373;-76
2023/02/25 07:08:44;;;;;;;6.43;2.33;;;;;;;0.69;100.00;97143.88;4194880;28;20516;-76
2023/02/25 07:10:44;;;;;;;5.60;1.90;;;;;;;0.68;100.00;97144.22;4191007;28;20101;-75
2023/02/25 07:12:44;;;;;;;5.60;2.20;;;;;;;0.71;100.00;97152.47;4191399;28;20405;-76
2023/02/25 07:14:45;;;;;;;5.80;2.17;;;;;;;0.72;100.00;97153.25;4183083;28;20203;-76
2023/02/25 07:16:45;;;;;;;5.95;2.10;;;;;;;0.70;100.00;97159.06;4186912;28;20048;-76
2023/02/25 07:18:46;;;;;;;4.78;1.80;;;;;;;0.78;100.00;97160.84;4191246;28;20067;-76
2023/02/25 07:20:46;;;;;;;5.93;1.85;;;;;;;0.83;100.00;97152.44;4195625;28;20063;-76
2023/02/25 07:22:47;;;;;;;5.10;2.03;;;;;;;0.79;100.00;97165.16;4193441;28;20082;-76
2023/02/25 07:24:48;;;;;;;6.88;1.88;;;;;;;0.80;100.00;97163.22;4193372;28;20044;-76
2023/02/25 07:26:48;;;;;;;4.70;2.03;;;;;;;0.81;100.00;97162.06;4192573;28;20037;-76
2023/02/25 07:28:49;;;;;;;7.35;2.15;;;;;;;0.75;100.00;97160.75;4192991;28;20052;-75
2023/02/25 07:30:49;;;;;;;6.47;2.90;;;;;;;0.73;100.00;97163.00;4191344;28;20499;-76
2023/02/25 07:32:49;;;;;;;7.22;2.92;;;;;;;0.74;100.00;97159.94;4197293;28;20527;-76
2023/02/25 07:34:50;;;;;;;7.70;2.92;;;;;;;0.78;100.00;97154.59;4196305;28;20086;-76
2023/02/25 07:36:50;;;;;;;6.35;2.60;;;;;;;0.82;100.00;97164.44;4194052;28;20494;-76
2023/02/25 07:38:50;;;;;;;8.88;3.17;;;;;;;0.85;100.00;97152.09;4191469;28;20049;-75
2023/02/25 07:40:50;;;;;;;3.75;2.72;;;;;;;0.90;100.00;97153.75;4198053;28;20166;-75
2023/02/25 07:42:51;;;;;;;6.20;2.70;;;;;;;0.93;100.00;97162.03;4195584;28;20140;-76
2023/02/25 07:44:51;;;;;;;9.63;3.33;;;;;;;1.00;100.00;97158.72;4197436;28;20594;-76
2023/02/25 07:46:52;;;;;;;9.95;2.95;;;;;;;1.01;100.00;97161.09;4195202;28;20036;-76
2023/02/25 07:48:52;;;;;;;8.63;5.32;;;;;;;1.03;100.00;97158.03;4135794;28;20040;-76
2023/02/25 07:50:53;;;;;;;5.88;2.60;;;;;;;1.06;100.00;97163.56;4195439;28;20414;-76
2023/02/25 07:52:53;;;;;;;4.15;2.10;;;;;;;1.15;100.00;97166.13;4193353;28;20055;-76
2023/02/25 07:54:54;;;;;;;4.30;2.20;;;;;;;1.13;100.00;97171.13;4196767;28;20048;-76
2023/02/25 07:56:54;;;;;;;9.35;2.60;;;;;;;1.10;100.00;97172.63;4191969;28;20045;-75
2023/02/25 07:58:55;;;;;;;7.13;3.83;;;;;;;1.09;100.00;97162.88;4191719;28;20049;-76
2023/02/25 08:00:55;;;;;;;2.75;1.83;;;;;;;1.04;100.00;97165.84;4198984;28;20052;-75
2023/02/25 08:02:55;;;;;;;10.45;3.22;;;;;;;0.98;100.00;97160.97;4191781;28;20348;-76
2023/02/25 08:04:56;;;;;;;8.77;3.10;;;;;;;0.95;100.00;97162.47;4192032;28;20413;-75
2023/02/25 08:06:56;;;;;;;4.90;2.28;;;;;;;1.03;100.00;97160.75;4192336;28;20040;-75
2023/02/25 08:08:56;;;;;;;6.32;2.53;;;;;;;1.05;100.00;97161.97;4195597;28;20102;-76
2023/02/25 08:10:57;;;;;;;5.00;2.70;;;;;;;1.09;100.00;97164.81;4194361;28;20048;-75
2023/02/25 08:12:57;;;;;;;4.53;2.05;;;;;;;1.21;100.00;97164.72;4190496;28;20123;-75
2023/02/25 08:15:00;;;;;;;7.25;2.83;;;;;;;1.16;100.00;97173.19;4192210;28;20072;-75
2023/02/25 08:17:01;;;;;;;11.20;2.53;;;;;;;1.27;100.00;97178.91;4193907;28;20045;-75
2023/02/25 08:19:01;;;;;;;5.05;2.55;;;;;;;1.18;100.00;97187.25;4195569;28;20365;-75
2023/02/25 08:21:03;;;;;;;6.47;2.50;;;;;;;1.19;100.00;97186.09;4191722;28;20049;-76
2023/02/25 08:23:05;;;;;;;7.13;2.80;;;;;;;1.03;100.00;97191.50;4194482;28;20543;-75
2023/02/25 08:25:05;;;;;;;6.15;2.65;;;;;;;0.94;100.00;97193.56;4195402;28;20472;-76
2023/02/25 08:27:09;;;;;;;3.72;2.03;;;;;;;0.94;100.00;97198.22;4189699;28;20103;-76
2023/02/25 08:29:10;;;;;;;5.60;2.25;;;;;;;0.94;100.00;97198.22;4197394;28;20048;-76
2023/02/25 08:31:11;;;;;;;2.17;1.40;;;;;;;0.82;100.00;97205.28;4191887;28;20350;-75
2023/02/25 08:33:11;;;;;;;2.03;1.48;;;;;;;0.77;100.00;97194.66;4191646;28;20040;-76
2023/02/25 08:35:13;;;;;;;6.18;3.35;;;;;;;0.67;100.00;97200.59;4193024;28;20063;-75
2023/02/25 08:37:13;;;;;;;5.93;2.95;;;;;;;0.72;100.00;97208.50;4195382;28;20041;-76
2023/02/25 08:39:13;;;;;;;4.78;2.45;;;;;;;0.73;100.00;97201.13;4194427;28;20635;-76
2023/02/25 08:41:13;;;;;;;3.33;1.95;;;;;;;0.71;100.00;97222.47;4191326;28;20045;-76
2023/02/25 08:43:14;;;;;;;4.10;1.88;;;;;;;0.76;100.00;97217.56;4186631;28;20052;-75
2023/02/25 08:45:14;;;;;;;8.32;2.85;;;;;;;0.72;100.00;97227.56;4190446;28;20040;-76
2023/02/25 08:47:15;;;;;;;4.10;1.60;;;;;;;0.67;100.00;97213.41;4186070;28;20040;-76
2023/02/25 08:49:16;;;;;;;4.18;1.88;;;;;;;0.75;100.00;97213.28;4187914;28;20125;-76
2023/02/25 08:51:17;;;;;;;5.78;2.30;;;;;;;0.86;100.00;97220.94;4193958;28;20040;-76
2023/02/25 08:53:18;;;;;;;4.97;1.90;;;;;;;0.87;100.00;97217.88;4188065;28;20059;-76
2023/02/25 08:55:18;;;;;;;3.72;2.33;;;;;;;0.87;100.00;97215.16;4186106;28;20052;-75
2023/02/25 08:57:18;;;;;;;5.18;2.92;;;;;;;0.96;100.00;97229.41;4195309;28;20044;-76
2023/02/25 08:59:18;;;;;;;5.70;2.90;;;;;;;0.99;100.00;97234.16;4197010;28;20036;-76
2023/02/25 09:01:19;;;;;;;7.65;4.07;;;;;;;0.99;100.00;97223.28;4195084;28;20052;-75
2023/02/25 09:03:20;;;;;;;6.00;2.90;;;;;;;0.94;100.00;97234.44;4195798;28;20032;-76
2023/02/25 09:05:20;;;;;;;5.45;3.47;;;;;;;0.95;100.00;97236.00;4194235;28;20044;-76
2023/02/25 09:07:20;;;;;;;4.13;2.70;;;;;;;0.91;100.00;97231.59;4189551;28;20108;-75
2023/02/25 09:09:21;;;;;;;3.92;1.90;;;;;;;0.89;100.00;97242.03;4184310;28;20393;-76
2023/02/25 09:11:22;;;;;;;3.13;2.08;;;;;;;0.88;100.00;97232.28;4186229;28;20048;-75
2023/02/25 09:13:22;;;;;;;5.00;2.17;;;;;;;0.90;100.00;97238.97;4188602;28;20547;-75
2023/02/25 09:15:22;;;;;;;3.83;2.42;;;;;;;0.96;100.00;97243.03;4195427;28;20055;-75
2023/02/25 09:17:23;;;;;;;4.25;2.35;;;;;;;1.08;100.00;97248.47;4198642;28;20516;-75
2023/02/25 09:19:23;;;;;;;2.85;2.05;;;;;;;1.10;100.00;97250.84;4191553;28;20045;-76
2023/02/25 09:21:24;;;;;;;5.57;1.98;;;;;;;1.14;100.00;97243.53;4195263;28;20473;-76
2023/02/25 09:23:24;;;;;;;5.80;3.40;;;;;;;1.13;100.00;97250.94;4189667;28;20132;-75
2023/02/25 09:25:24;;;;;;;9.73;4.50;;;;;;;1.10;100.00;97250.84;4189943;28;20144;-75
2023/02/25 09:27:25;;;;;;;5.22;2.90;;;;;;;1.07;100.00;97246.06;4190495;28;20040;-75
2023/02/25 09:29:27;;;;;;;2.87;1.80;;;;;;;1.12;100.00;97256.72;4190643;28;20544;-76
2023/02/25 09:31:27;;;;;;;3.50;1.83;;;;;;;1.08;100.00;97259.34;4191331;28;20311;-75
2023/02/25 09:33:30;;;;;;;3.13;1.92;;;;;;;1.16;100.00;97273.16;4195855;28;20032;-75
2023/02/25 09:35:30;;;;;;;5.30;1.90;;;;;;;1.10;100.00;97262.53;4189445;28;20089;-75